Time;durP1;ratioP1;P1;durP2;ratioP2;P2;SDS_P1;SDS_P2;PMS_P1;PMS_P2;Temp;Humidity;BMP_temperature;BMP_pressure;BME280_temperature;BME280_humidity;BME280_pressure;Samples;Min_cycle;Max_cycle;Signal;HPM_P1;HPM_P2
2021/09/29 00:00:33;;;;;;;2.20;0.98;;;;;;;14.03;97.99;101309.38;5052002;28;20094;-63
2021/09/29 00:02:58;;;;;;;1.70;1.10;;;;;;;14.02;97.85;101320.59;5050575;28;20066;-62
2021/09/29 00:05:24;;;;;;;2.63;1.23;;;;;;;14.02;98.02;101310.53;5059513;28;20073;-62
2021/09/29 00:07:49;;;;;;;3.92;1.13;;;;;;;14.00;97.91;101312.03;5049622;28;20032;-62
2021/09/29 00:10:15;;;;;;;3.92;1.10;;;;;;;13.99;97.75;101310.47;5047843;28;20040;-62
2021/09/29 00:12:41;;;;;;;2.22;1.30;;;;;;;14.03;98.13;101314.81;5049467;28;20404;-63
2021/09/29 00:15:11;;;;;;;5.57;1.38;;;;;;;13.93;98.37;101309.22;5050885;28;20045;-62
2021/09/29 00:17:37;;;;;;;1.33;1.13;;;;;;;13.99;98.39;101310.47;5050189;28;20036;-62
2021/09/29 00:20:05;;;;;;;1.38;1.25;;;;;;;13.98;98.02;101308.91;5045029;28;20040;-63
2021/09/29 00:22:31;;;;;;;2.58;1.25;;;;;;;13.92;98.35;101294.09;5056876;28;20021;-62
2021/09/29 00:24:56;;;;;;;1.83;1.38;;;;;;;13.81;98.83;101295.84;5058952;28;20044;-62
2021/09/29 00:27:22;;;;;;;3.80;1.15;;;;;;;13.85;98.76;101293.97;5049366;28;20025;-62
2021/09/29 00:29:49;;;;;;;3.17;1.20;;;;;;;13.85;98.87;101292.06;5061153;28;20094;-62
2021/09/29 00:32:16;;;;;;;1.33;1.00;;;;;;;13.85;98.59;101289.34;5048497;28;20029;-62
2021/09/29 00:34:43;;;;;;;1.95;1.27;;;;;;;13.85;98.69;101286.66;5049676;28;20147;-62
2021/09/29 00:37:08;;;;;;;3.95;1.50;;;;;;;13.76;98.82;101283.41;5042723;28;20112;-62
2021/09/29 00:39:34;;;;;;;1.45;0.93;;;;;;;13.73;99.34;101286.81;5057908;28;20493;-62
2021/09/29 00:42:00;;;;;;;2.03;1.20;;;;;;;13.69;99.45;101285.19;5045739;28;20108;-62
2021/09/29 00:44:26;;;;;;;2.22;1.30;;;;;;;13.72;99.11;101281.78;5059821;28;20059;-62
2021/09/29 00:46:53;;;;;;;3.45;1.25;;;;;;;13.73;99.38;101273.28;5054691;28;20113;-62
2021/09/29 00:49:18;;;;;;;3.95;1.15;;;;;;;13.67;99.03;101274.72;5045772;28;20065;-62
2021/09/29 00:51:44;;;;;;;1.75;0.98;;;;;;;13.62;98.98;101269.63;5045763;28;20079;-62
2021/09/29 00:54:10;;;;;;;2.88;1.20;;;;;;;13.57;99.76;101267.97;5056650;28;20037;-62
2021/09/29 00:56:36;;;;;;;2.10;1.38;;;;;;;13.64;99.44;101277.38;5038605;28;20091;-62
2021/09/29 00:59:02;;;;;;;1.73;0.82;;;;;;;13.65;99.27;101274.28;5027182;28;20033;-63
2021/09/29 01:01:28;;;;;;;3.13;1.25;;;;;;;13.53;99.40;101260.94;5046032;28;20029;-63
2021/09/29 01:03:55;;;;;;;2.10;1.17;;;;;;;13.49;100.00;101258.16;5041921;28;20102;-62
2021/09/29 01:06:23;;;;;;;1.45;1.13;;;;;;;13.40;100.00;101263.03;5055578;28;20401;-62
2021/09/29 01:08:54;;;;;;;2.25;1.00;;;;;;;13.44;99.83;101261.19;5045774;28;20025;-63
2021/09/29 01:11:47;;;;;;;1.77;1.13;;;;;;;13.47;99.91;101257.75;5054874;28;20036;-62
2021/09/29 01:14:31;;;;;;;1.30;1.17;;;;;;;13.45;99.80;101251.91;5040112;28;20084;-62
2021/09/29 01:17:00;;;;;;;1.65;1.30;;;;;;;13.41;100.00;101247.59;5049854;28;20090;-62
2021/09/29 01:19:44;;;;;;;3.20;1.20;;;;;;;13.36;99.96;101245.16;5039371;28;20029;-62
2021/09/29 01:22:21;;;;;;;1.92;1.20;;;;;;;13.33;100.00;101241.25;5051117;28;20029;-63
2021/09/29 01:24:54;;;;;;;6.65;1.23;;;;;;;13.39;99.75;101239.03;5041540;28;20021;-63
2021/09/29 01:27:22;;;;;;;1.85;1.25;;;;;;;13.39;100.00;101239.03;5042947;28;20040;-62
2021/09/29 01:29:51;;;;;;;2.25;1.42;;;;;;;13.39;99.86;101233.63;5047535;28;20481;-62
2021/09/29 01:32:19;;;;;;;2.10;1.27;;;;;;;13.40;99.48;101225.16;5051987;28;20017;-63
2021/09/29 01:34:46;;;;;;;3.90;1.00;;;;;;;13.41;99.97;101223.22;5048789;28;20072;-62
2021/09/29 01:37:12;;;;;;;1.80;1.27;;;;;;;13.35;99.96;101221.97;5041109;28;20703;-62
2021/09/29 01:39:38;;;;;;;2.10;1.17;;;;;;;13.29;100.00;101223.38;5052896;28;20159;-63
2021/09/29 01:42:04;;;;;;;2.90;1.23;;;;;;;13.29;100.00;101220.69;5055099;28;20401;-62
2021/09/29 01:44:31;;;;;;;1.83;1.08;;;;;;;13.38;100.00;101218.53;5049795;28;20102;-63
2021/09/29 01:46:58;;;;;;;2.55;1.10;;;;;;;13.41;100.00;101215.13;5047219;28;20122;-62
2021/09/29 01:49:30;;;;;;;2.38;1.02;;;;;;;13.45;99.79;101216.72;5046947;28;20063;-62
2021/09/29 01:51:56;;;;;;;3.40;1.02;;;;;;;13.45;100.00;101218.66;5049217;28;20094;-62
2021/09/29 01:54:26;;;;;;;4.30;1.30;;;;;;;13.36;100.00;101216.19;5037054;28;20045;-62
2021/09/29 01:56:52;;;;;;;2.03;1.00;;;;;;;13.23;100.00;101211.28;5055270;28;20067;-62
2021/09/29 01:59:18;;;;;;;3.40;1.20;;;;;;;13.21;100.00;101211.66;5036258;28;20025;-62
2021/09/29 02:01:44;;;;;;;1.92;1.30;;;;;;;13.24;100.00;101205.53;5055808;28;20115;-62
2021/09/29 02:04:11;;;;;;;2.13;1.40;;;;;;;13.28;100.00;101205.59;5056621;28;20044;-62
2021/09/29 02:06:51;;;;;;;2.38;1.25;;;;;;;13.30;100.00;101197.91;5050947;28;20036;-62
2021/09/29 02:09:17;;;;;;;1.48;1.15;;;;;;;13.33;100.00;101199.91;5043510;28;20045;-62
2021/09/29 02:11:43;;;;;;;3.92;1.50;;;;;;;13.20;100.00;101201.97;5053697;28;20484;-63
2021/09/29 02:14:09;;;;;;;1.55;1.20;;;;;;;13.24;100.00;101200.13;5052540;28;20117;-63
2021/09/29 02:16:35;;;;;;;1.40;1.08;;;;;;;13.21;100.00;101200.84;5050909;28;20036;-62
2021/09/29 02:19:01;;;;;;;3.40;1.23;;;;;;;13.26;100.00;101194.34;5041422;28;20036;-63
2021/09/29 02:21:27;;;;;;;2.53;1.30;;;;;;;13.25;100.00;101193.56;5060619;28;20016;-62
2021/09/29 02:23:52;;;;;;;4.70;1.25;;;;;;;13.27;100.00;101185.09;5036044;28;20056;-62
2021/09/29 02:26:18;;;;;;;5.20;1.02;;;;;;;13.30;100.00;101173.53;5037936;28;20037;-62
2021/09/29 02:28:43;;;;;;;4.00;1.38;;;;;;;13.30;100.00;101178.97;5040451;28;20047;-63
2021/09/29 02:31:09;;;;;;;1.75;1.15;;;;;;;13.25;100.00;101173.84;5044626;28;20042;-62
2021/09/29 02:33:34;;;;;;;2.15;1.38;;;;;;;13.21;100.00;101160.28;5050204;28;20059;-62
2021/09/29 02:35:59;;;;;;;2.00;1.23;;;;;;;13.19;100.00;101165.25;5044754;28;20060;-63
2021/09/29 02:38:25;;;;;;;1.70;1.40;;;;;;;13.25;100.00;101163.03;5049779;28;20090;-62
2021/09/29 02:40:51;;;;;;;1.88;1.20;;;;;;;13.26;100.00;101165.38;5046856;28;20045;-62
2021/09/29 02:43:16;;;;;;;3.25;1.50;;;;;;;13.28;100.00;101162.31;5016019;28;20037;-62
2021/09/29 02:45:44;;;;;;;2.65;1.48;;;;;;;13.24;100.00;101161.50;5037102;28;20038;-62
2021/09/29 02:48:10;;;;;;;3.65;1.27;;;;;;;13.22;100.00;101159.13;5048370;28;20093;-63
2021/09/29 02:50:35;;;;;;;4.05;1.25;;;;;;;13.24;100.00;101161.50;5043116;28;20116;-62
2021/09/29 02:53:01;;;;;;;1.33;1.05;;;;;;;13.22;100.00;101152.94;5048038;28;20036;-62
2021/09/29 02:55:26;;;;;;;4.72;1.48;;;;;;;13.16;100.00;101151.69;5045411;28;20068;-62
2021/09/29 02:57:52;;;;;;;2.17;1.30;;;;;;;13.19;100.00;101167.16;5046036;28;20031;-62
2021/09/29 03:00:18;;;;;;;2.72;1.42;;;;;;;13.04;100.00;101152.63;5046846;28;20029;-62
2021/09/29 03:02:44;;;;;;;1.90;1.15;;;;;;;13.14;100.00;101153.97;5045554;28;20674;-63
2021/09/29 03:05:09;;;;;;;5.50;1.45;;;;;;;13.05;100.00;101150.69;5046678;28;20039;-62
2021/09/29 03:07:35;;;;;;;2.88;1.88;;;;;;;13.11;100.00;101141.13;5041593;28;20551;-63
2021/09/29 03:10:00;;;;;;;2.50;1.23;;;;;;;13.09;100.00;101138.81;5042776;28;20423;-63
2021/09/29 03:12:26;;;;;;;2.03;1.30;;;;;;;13.11;100.00;101124.91;5045303;28;20033;-62
2021/09/29 03:14:51;;;;;;;3.25;1.30;;;;;;;12.99;100.00;101133.94;5049540;28;20072;-62
2021/09/29 03:17:16;;;;;;;1.80;1.17;;;;;;;13.06;100.00;101127.94;5049658;28;20416;-62
2021/09/29 03:19:42;;;;;;;1.95;1.10;;;;;;;13.04;100.00;101128.28;5047892;28;20044;-62
2021/09/29 03:22:07;;;;;;;2.65;1.50;;;;;;;13.08;100.00;101126.44;5048611;28;20535;-62
2021/09/29 03:24:33;;;;;;;2.35;1.40;;;;;;;13.08;100.00;101126.44;5049701;28;20033;-63
2021/09/29 03:26:58;;;;;;;2.95;1.30;;;;;;;13.08;100.00;101122.94;5043504;28;20402;-63
2021/09/29 03:29:24;;;;;;;3.50;1.40;;;;;;;13.06;100.00;101126.00;5036297;28;20044;-62
2021/09/29 03:31:49;;;;;;;3.50;1.33;;;;;;;13.06;100.00;101117.13;5038942;28;20138;-62
2021/09/29 03:34:15;;;;;;;1.40;1.10;;;;;;;13.11;100.00;101123.00;5047391;28;20041;-62
2021/09/29 03:36:40;;;;;;;5.80;1.15;;;;;;;13.05;100.00;101112.81;5047098;28;20040;-62
2021/09/29 03:39:06;;;;;;;2.33;1.40;;;;;;;13.06;100.00;101107.09;5047613;28;20091;-62
2021/09/29 03:41:32;;;;;;;2.17;1.45;;;;;;;13.08;100.00;101110.22;5048688;28;20029;-62
2021/09/29 03:43:58;;;;;;;2.75;1.40;;;;;;;13.13;100.00;101114.53;5048235;28;20073;-62
2021/09/29 03:46:24;;;;;;;5.50;1.50;;;;;;;13.16;100.00;101111.13;5042372;28;20087;-62
2021/09/29 03:48:49;;;;;;;2.42;1.27;;;;;;;13.05;100.00;101100.09;5049085;28;20477;-62
2021/09/29 03:51:15;;;;;;;2.65;1.60;;;;;;;13.08;100.00;101098.59;5048843;28;20037;-62
2021/09/29 03:53:40;;;;;;;2.08;1.48;;;;;;;13.06;100.00;101092.78;5049689;28;20044;-62
2021/09/29 03:56:06;;;;;;;1.48;1.33;;;;;;;13.10;100.00;101099.03;5048782;28;20107;-63
2021/09/29 03:58:31;;;;;;;4.13;1.70;;;;;;;13.09;100.00;101094.75;5048786;28;20059;-63
2021/09/29 04:00:57;;;;;;;1.73;1.17;;;;;;;13.13;100.00;101095.59;5040888;28;20041;-62
2021/09/29 04:03:23;;;;;;;2.20;1.50;;;;;;;13.12;100.00;101094.03;5038084;28;20458;-63
2021/09/29 04:05:48;;;;;;;1.88;1.40;;;;;;;13.07;100.00;101091.63;5047440;28;20116;-61
2021/09/29 04:08:14;;;;;;;1.88;1.40;;;;;;;13.12;100.00;101088.63;5046639;28;20040;-62
2021/09/29 04:10:40;;;;;;;1.70;1.20;;;;;;;13.09;100.00;101081.22;5043898;28;20043;-62
2021/09/29 04:13:06;;;;;;;2.72;1.35;;;;;;;13.11;100.00;101079.72;5046929;28;20028;-63
2021/09/29 04:15:33;;;;;;;2.92;1.55;;;;;;;13.11;100.00;101092.47;5049248;28;20064;-63
2021/09/29 04:17:59;;;;;;;2.45;1.60;;;;;;;13.05;100.00;101075.75;5040971;28;20041;-64
2021/09/29 04:20:24;;;;;;;2.40;1.60;;;;;;;13.08;100.00;101075.06;5048078;28;20040;-64
2021/09/29 04:22:50;;;;;;;5.15;1.48;;;;;;;13.09;100.00;101073.13;5050716;28;20409;-63
2021/09/29 04:25:15;;;;;;;2.78;1.48;;;;;;;13.03;100.00;101085.34;5046119;28;20037;-63
2021/09/29 04:27:41;;;;;;;2.35;1.50;;;;;;;13.10;100.00;101077.41;5051421;28;20622;-63
2021/09/29 04:30:07;;;;;;;1.77;1.38;;;;;;;13.12;100.00;101073.19;5050610;28;20497;-63
2021/09/29 04:32:33;;;;;;;2.72;1.60;;;;;;;13.08;100.00;101072.34;5051784;28;20032;-63
2021/09/29 04:34:59;;;;;;;2.10;1.33;;;;;;;13.09;100.00;101070.41;5050656;28;20033;-63
2021/09/29 04:37:24;;;;;;;3.05;1.42;;;;;;;13.08;100.00;101066.16;5050860;28;20445;-63
2021/09/29 04:39:49;;;;;;;2.90;1.40;;;;;;;13.11;100.00;101068.91;5047353;28;20125;-63
2021/09/29 04:42:15;;;;;;;1.50;1.10;;;;;;;13.09;100.00;101059.59;5043582;28;20104;-63
2021/09/29 04:44:40;;;;;;;2.17;1.10;;;;;;;13.10;100.00;101058.47;5052024;28;20033;-63
2021/09/29 04:47:06;;;;;;;1.60;1.20;;;;;;;13.03;100.00;101061.00;5044329;28;20041;-63
2021/09/29 04:49:31;;;;;;;1.92;1.33;;;;;;;13.06;100.00;101049.50;5044642;28;20040;-63
2021/09/29 04:51:57;;;;;;;5.47;1.20;;;;;;;13.04;100.00;101054.50;5051311;28;20033;-63
2021/09/29 04:54:22;;;;;;;2.42;1.30;;;;;;;13.04;100.00;101049.88;5048956;28;20036;-63
2021/09/29 04:56:50;;;;;;;1.88;1.20;;;;;;;13.00;100.00;101057.13;5050987;28;20108;-62
2021/09/29 04:59:16;;;;;;;3.72;1.48;;;;;;;13.03;100.00;101042.91;5046814;28;20041;-63
2021/09/29 05:01:42;;;;;;;2.08;1.25;;;;;;;13.03;100.00;101039.38;5052272;28;20025;-62
2021/09/29 05:04:08;;;;;;;2.13;1.25;;;;;;;12.96;100.00;101041.97;5051458;28;20366;-63
2021/09/29 05:06:35;;;;;;;4.22;1.50;;;;;;;12.91;100.00;101044.97;5047190;28;20036;-63
2021/09/29 05:09:02;;;;;;;2.33;1.40;;;;;;;12.94;100.00;101049.66;5050351;28;20044;-63
2021/09/29 05:11:38;;;;;;;2.55;1.75;;;;;;;12.92;100.00;101046.53;5050509;28;20477;-63
2021/09/29 05:14:04;;;;;;;1.88;1.20;;;;;;;12.89;100.00;101039.91;5048446;28;20029;-63
2021/09/29 05:16:29;;;;;;;1.73;1.20;;;;;;;12.90;100.00;101041.50;5051002;28;20055;-63
2021/09/29 05:18:55;;;;;;;1.30;1.15;;;;;;;12.90;100.00;101041.50;5047253;28;20496;-63
2021/09/29 05:21:20;;;;;;;3.08;1.52;;;;;;;12.89;100.00;101029.09;5049840;28;20029;-62
2021/09/29 05:23:46;;;;;;;2.03;1.40;;;;;;;12.90;100.00;101033.38;5049909;28;20041;-63
2021/09/29 05:26:11;;;;;;;2.22;1.38;;;;;;;12.91;100.00;101028.75;5041011;28;20100;-63
2021/09/29 05:28:40;;;;;;;3.25;1.58;;;;;;;12.97;100.00;101035.44;5049404;28;20154;-63
2021/09/29 05:31:06;;;;;;;4.43;1.20;;;;;;;12.97;100.00;101025.38;5049693;28;20120;-62
2021/09/29 05:33:31;;;;;;;2.47;1.48;;;;;;;12.93;100.00;101021.84;5047691;28;20562;-62
2021/09/29 05:35:57;;;;;;;1.60;1.30;;;;;;;12.97;100.00;101027.31;5041176;28;20074;-63
2021/09/29 05:38:23;;;;;;;3.78;1.38;;;;;;;13.00;100.00;101018.47;5047946;28;20033;-63
2021/09/29 05:40:49;;;;;;;3.85;1.70;;;;;;;12.98;100.00;101013.44;5040251;28;20037;-62
2021/09/29 05:43:15;;;;;;;2.10;1.58;;;;;;;13.06;100.00;101011.66;5051235;28;20041;-63
2021/09/29 05:45:40;;;;;;;5.72;1.95;;;;;;;13.03;100.00;100996.13;5049292;28;20044;-63
2021/09/29 05:48:06;;;;;;;1.50;1.20;;;;;;;13.05;100.00;101012.78;5049840;28;20032;-63
2021/09/29 05:50:35;;;;;;;2.38;1.35;;;;;;;12.97;100.00;101011.09;5050978;28;20132;-63
2021/09/29 05:53:00;;;;;;;2.42;1.35;;;;;;;13.07;100.00;101010.50;5049200;28;20035;-62
2021/09/29 05:55:26;;;;;;;2.42;1.40;;;;;;;13.12;100.00;101015.63;5048516;28;21653;-62
2021/09/29 05:57:51;;;;;;;1.92;1.40;;;;;;;13.09;100.00;101003.59;5034831;28;20574;-63
2021/09/29 06:00:17;;;;;;;2.45;1.33;;;;;;;13.09;100.00;101003.59;5042187;28;20393;-63
2021/09/29 06:02:43;;;;;;;2.10;1.70;;;;;;;13.11;100.00;101014.84;5046400;28;20428;-63
2021/09/29 06:05:08;;;;;;;3.72;1.60;;;;;;;13.12;100.00;101002.88;5048851;28;20409;-62
2021/09/29 06:07:34;;;;;;;3.55;1.30;;;;;;;13.14;100.00;101007.94;5049059;28;20041;-63
2021/09/29 06:09:59;;;;;;;4.03;2.00;;;;;;;13.20;100.00;100998.38;5048952;28;20040;-63
2021/09/29 06:12:25;;;;;;;3.50;1.80;;;;;;;13.19;100.00;100994.09;5050064;28;20082;-63
2021/09/29 06:14:53;;;;;;;2.60;1.48;;;;;;;13.15;100.00;100990.53;5047607;28;20064;-62
2021/09/29 06:17:27;;;;;;;6.25;1.50;;;;;;;13.21;100.00;101000.69;5049701;28;20048;-63
2021/09/29 06:19:54;;;;;;;3.67;1.73;;;;;;;13.27;100.00;100990.34;5044556;28;20068;-63
2021/09/29 06:22:23;;;;;;;2.35;1.60;;;;;;;13.24;100.00;100997.25;5048458;28;20032;-63
2021/09/29 06:24:49;;;;;;;2.72;1.58;;;;;;;13.33;100.00;100997.78;5047124;28;20094;-63
2021/09/29 06:27:14;;;;;;;3.10;1.40;;;;;;;13.36;100.00;100990.84;5050237;28;20028;-62
2021/09/29 06:29:40;;;;;;;3.65;1.52;;;;;;;13.40;100.00;100999.81;5047970;28;20033;-63
2021/09/29 06:32:06;;;;;;;6.13;1.67;;;;;;;13.43;100.00;100990.97;5048849;28;20052;-63
2021/09/29 06:34:32;;;;;;;2.25;1.50;;;;;;;13.42;100.00;100994.81;5045949;28;20112;-63
2021/09/29 06:36:57;;;;;;;2.42;1.42;;;;;;;13.38;100.00;100986.66;5030544;28;20362;-63
2021/09/29 06:39:23;;;;;;;1.70;1.13;;;;;;;13.46;100.00;100985.59;5044469;28;20036;-62
2021/09/29 06:41:49;;;;;;;3.03;1.35;;;;;;;13.48;100.00;100998.78;5047640;28;20816;-63
2021/09/29 06:44:15;;;;;;;1.77;1.35;;;;;;;13.49;100.00;100994.94;5048312;28;20032;-62
2021/09/29 06:46:40;;;;;;;3.72;1.52;;;;;;;13.52;100.00;100994.19;5042027;28;20420;-61
2021/09/29 06:49:06;;;;;;;3.35;1.30;;;;;;;13.53;100.00;100991.09;5047777;28;20037;-62
2021/09/29 06:51:32;;;;;;;1.83;1.15;;;;;;;13.65;100.00;100992.03;5045292;28;20040;-63
2021/09/29 06:53:58;;;;;;;2.33;1.55;;;;;;;13.71;100.00;100994.06;5032760;28;20044;-62
2021/09/29 06:56:24;;;;;;;3.92;1.38;;;;;;;13.78;100.00;100991.44;5049037;28;20155;-63
2021/09/29 06:58:52;;;;;;;1.67;1.30;;;;;;;13.91;100.00;100984.66;5047482;28;20044;-62
2021/09/29 07:01:18;;;;;;;3.63;1.60;;;;;;;13.95;100.00;100993.59;5046442;28;20037;-63
2021/09/29 07:03:43;;;;;;;2.47;1.85;;;;;;;13.96;100.00;100984.31;5049511;28;20036;-63
2021/09/29 07:06:10;;;;;;;3.28;1.48;;;;;;;14.07;100.00;100976.31;5046546;28;20028;-62
2021/09/29 07:08:36;;;;;;;2.55;1.60;;;;;;;14.14;100.00;100981.81;5047622;28;20091;-63
2021/09/29 07:11:02;;;;;;;2.08;1.45;;;;;;;14.25;100.00;100980.00;5045200;28;20078;-62
2021/09/29 07:13:28;;;;;;;3.97;2.75;;;;;;;14.20;100.00;100969.50;5031584;28;20116;-62
2021/09/29 07:15:54;;;;;;;4.15;1.63;;;;;;;14.35;100.00;100969.31;5042765;28;20112;-63
2021/09/29 07:18:19;;;;;;;3.50;1.73;;;;;;;14.46;100.00;100978.31;5046768;28;20040;-63
2021/09/29 07:20:45;;;;;;;6.03;1.77;;;;;;;14.57;100.00;100978.44;5046246;28;20080;-63
2021/09/29 07:23:11;;;;;;;4.78;1.80;;;;;;;14.60;100.00;100969.53;5044472;28;20032;-62
2021/09/29 07:25:38;;;;;;;1.98;1.40;;;;;;;14.67;100.00;100966.13;5044820;28;20141;-62
2021/09/29 07:28:05;;;;;;;3.28;1.80;;;;;;;14.77;100.00;100955.34;5046196;28;20060;-63
2021/09/29 07:30:31;;;;;;;1.73;1.33;;;;;;;14.86;100.00;100953.13;5045859;28;20037;-63
2021/09/29 07:33:02;;;;;;;4.03;1.65;;;;;;;14.97;100.00;100958.59;5052403;28;20048;-63
2021/09/29 07:35:29;;;;;;;6.00;1.80;;;;;;;15.02;100.00;100952.84;5044015;28;20033;-62
2021/09/29 07:37:55;;;;;;;4.45;1.83;;;;;;;15.12;100.00;100960.25;5044733;28;20048;-62
2021/09/29 07:40:21;;;;;;;5.18;1.67;;;;;;;15.06;100.00;100948.22;5047590;28;20040;-62
2021/09/29 07:42:46;;;;;;;4.40;2.00;;;;;;;15.08;100.00;100948.59;5043425;28;20169;-62
2021/09/29 07:45:12;;;;;;;4.35;1.60;;;;;;;15.08;100.00;100960.22;5052083;28;20033;-63
2021/09/29 07:47:37;;;;;;;2.90;2.10;;;;;;;15.11;100.00;100956.78;5045793;28;20043;-63
2021/09/29 07:50:06;;;;;;;4.65;1.92;;;;;;;15.14;100.00;100950.59;5041106;28;20079;-63
2021/09/29 07:52:32;;;;;;;3.72;2.08;;;;;;;15.12;100.00;100957.53;5048222;28;20033;-62
2021/09/29 07:54:57;;;;;;;3.47;1.92;;;;;;;15.11;100.00;100948.66;5046935;28;20051;-63
2021/09/29 07:57:23;;;;;;;4.00;2.08;;;;;;;15.10;100.00;100943.56;5053579;28;20454;-63
2021/09/29 07:59:48;;;;;;;2.97;1.90;;;;;;;15.16;100.00;100933.94;5047404;28;20033;-63
2021/09/29 08:02:13;;;;;;;4.20;2.00;;;;;;;15.24;100.00;100930.09;5041129;28;20505;-63
2021/09/29 08:04:42;;;;;;;5.97;1.88;;;;;;;15.36;100.00;100919.72;5048632;28;20493;-62
2021/09/29 08:07:08;;;;;;;4.75;2.05;;;;;;;15.42;100.00;100914.72;5044427;28;20032;-63
2021/09/29 08:09:34;;;;;;;3.28;2.00;;;;;;;15.43;100.00;100908.13;5046386;28;20045;-63
2021/09/29 08:11:59;;;;;;;3.75;1.90;;;;;;;15.47;100.00;100905.44;5046020;28;20112;-62
2021/09/29 08:14:25;;;;;;;3.80;1.90;;;;;;;15.44;100.00;100892.63;5045842;28;20025;-63
2021/09/29 08:16:50;;;;;;;4.18;2.03;;;;;;;15.47;100.00;100889.94;5045886;28;20178;-62
2021/09/29 08:19:16;;;;;;;1.73;1.42;;;;;;;15.52;100.00;100891.50;5044862;28;20130;-63
2021/09/29 08:21:48;;;;;;;2.55;1.73;;;;;;;15.65;100.00;100879.13;5043763;28;20116;-63
2021/09/29 08:24:20;;;;;;;4.88;1.70;;;;;;;15.67;100.00;100861.31;5045364;28;20037;-63
2021/09/29 08:27:09;;;;;;;3.20;1.60;;;;;;;15.65;100.00;100846.56;5046988;28;20090;-63
2021/09/29 08:29:45;;;;;;;4.13;1.70;;;;;;;15.60;100.00;100872.13;5041297;28;20041;-63
2021/09/29 08:39:53;;;;;;;3.72;2.15;;;;;;;15.90;100.00;100859.03;5043067;28;20401;-62
2021/09/29 08:42:41;;;;;;;4.07;2.25;;;;;;;15.88;100.00;100847.78;5053516;28;20027;-62
2021/09/29 08:45:13;;;;;;;3.78;1.70;;;;;;;15.92;100.00;100854.00;5019228;28;20590;-62
2021/09/29 08:47:53;;;;;;;2.60;1.63;;;;;;;16.03;100.00;100854.78;5045951;28;20052;-62
2021/09/29 09:15:53;;;;;;;3.50;1.75;;;;;;;16.50;98.83;100866.47;5041726;28;20095;-61
2021/09/29 09:18:19;;;;;;;3.47;2.03;;;;;;;16.53;98.26;100854.84;5046308;28;20029;-62
2021/09/29 09:20:50;;;;;;;4.28;1.70;;;;;;;16.57;97.53;100855.63;5044362;28;20159;-62
2021/09/29 09:23:15;;;;;;;3.47;1.60;;;;;;;16.55;98.22;100850.53;5056508;28;20029;-62
2021/09/29 09:25:44;;;;;;;3.45;2.00;;;;;;;16.47;97.08;100843.56;5041791;28;20112;-62
2021/09/29 09:28:26;;;;;;;4.20;2.40;;;;;;;16.53;97.34;100844.72;5047249;28;20406;-63
2021/09/29 09:30:51;;;;;;;3.72;2.00;;;;;;;16.57;97.50;100848.22;5043032;28;20028;-62
2021/09/29 09:33:25;;;;;;;7.65;2.90;;;;;;;16.67;97.34;100852.09;5047196;28;20669;-62
2021/09/29 09:35:51;;;;;;;3.80;1.88;;;;;;;16.67;96.63;100852.09;5039876;28;20095;-62
2021/09/29 09:38:24;;;;;;;2.40;1.98;;;;;;;16.74;96.13;100839.25;5049450;28;20033;-62
2021/09/29 09:40:58;;;;;;;2.58;1.88;;;;;;;16.80;95.75;100842.38;5045760;28;20145;-62
2021/09/29 09:43:29;;;;;;;4.03;2.17;;;;;;;16.78;95.03;100831.09;5054625;28;20448;-62
2021/09/29 09:45:56;;;;;;;2.97;1.73;;;;;;;16.94;95.79;100834.16;5030614;28;20040;-62
2021/09/29 09:48:30;;;;;;;4.78;1.73;;;;;;;17.18;95.93;100822.41;5046956;28;20044;-62
2021/09/29 09:51:06;;;;;;;3.20;1.90;;;;;;;17.43;93.97;100819.59;5041204;28;20077;-62
2021/09/29 09:53:35;;;;;;;3.58;1.90;;;;;;;17.50;94.20;100816.88;5047871;28;20040;-62
2021/09/29 09:56:14;;;;;;;5.38;1.95;;;;;;;17.50;92.82;100812.19;5047006;28;20032;-62
2021/09/29 09:58:44;;;;;;;3.38;2.03;;;;;;;17.44;93.13;100813.72;5048310;28;20048;-62
2021/09/29 10:01:16;;;;;;;4.20;1.85;;;;;;;17.45;93.37;100819.97;5044653;28;20037;-62
2021/09/29 10:03:42;;;;;;;4.60;1.95;;;;;;;17.45;92.96;100815.28;5054085;28;20496;-62
2021/09/29 10:06:07;;;;;;;3.85;1.80;;;;;;;17.47;93.95;100812.97;5045299;28;20047;-62
2021/09/29 10:08:33;;;;;;;3.88;2.05;;;;;;;17.51;92.47;100808.28;5048671;28;20028;-62
2021/09/29 10:27:24;;;;;;;5.60;2.40;;;;;;;17.36;93.79;100784.22;5038862;28;20040;-62
2021/09/29 10:30:06;;;;;;;4.18;2.00;;;;;;;17.38;94.14;100777.19;5047444;28;20048;-62
2021/09/29 10:32:43;;;;;;;5.22;2.22;;;;;;;17.52;94.55;100777.16;5050280;28;20482;-62
2021/09/29 10:43:04;;;;;;;3.45;2.00;;;;;;;17.92;93.29;100751.19;5036383;28;20037;-62
2021/09/29 11:34:50;;;;;;;3.70;2.33;;;;;;;18.45;89.18;100723.44;5048302;28;20408;-63
2021/09/29 11:48:33;;;;;;;2.83;1.90;;;;;;;18.55;88.11;100728.00;5008925;28;20045;-63
2021/09/29 12:08:50;;;;;;;2.47;1.77;;;;;;;19.21;86.71;100690.91;5041667;28;20118;-62
2021/09/29 12:11:22;;;;;;;5.07;1.80;;;;;;;19.43;86.37;100692.19;5043083;28;20132;-62
2021/09/29 12:13:59;;;;;;;3.15;1.70;;;;;;;19.60;86.31;100687.63;5042532;28;20033;-62
2021/09/29 12:16:32;;;;;;;3.13;1.90;;;;;;;19.56;85.67;100684.94;5030187;28;20507;-62
2021/09/29 12:18:59;;;;;;;2.28;1.75;;;;;;;19.55;84.51;100685.38;5041945;28;20051;-62
2021/09/29 12:24:28;;;;;;;3.53;1.85;;;;;;;19.57;85.35;100670.09;5047796;28;20407;-63
2021/09/29 12:26:56;;;;;;;2.17;1.60;;;;;;;19.51;85.95;100663.53;5044114;28;20044;-62
2021/09/29 12:29:35;;;;;;;3.58;2.13;;;;;;;19.44;85.45;100652.75;5043841;28;20458;-62
2021/09/29 12:37:53;;;;;;;2.92;1.90;;;;;;;19.36;85.16;100648.56;5042220;28;20056;-63
2021/09/29 12:40:19;;;;;;;3.13;1.95;;;;;;;19.38;84.74;100648.94;5038224;28;20405;-63
2021/09/29 12:42:44;;;;;;;3.85;2.00;;;;;;;19.42;82.94;100638.72;5048171;28;20025;-63
2021/09/29 12:45:10;;;;;;;3.67;2.38;;;;;;;19.52;83.25;100645.97;5040974;28;20109;-63
2021/09/29 12:47:39;;;;;;;3.10;1.98;;;;;;;19.67;82.58;100633.63;5044299;28;20036;-63
2021/09/29 12:50:13;;;;;;;2.58;1.70;;;;;;;19.77;81.74;100648.28;5043167;28;20037;-63
2021/09/29 12:52:47;;;;;;;2.85;2.00;;;;;;;19.72;81.26;100630.38;5047793;28;20051;-63
2021/09/29 12:55:19;;;;;;;2.78;1.65;;;;;;;19.85;82.17;100618.84;5046147;28;20049;-63
2021/09/29 12:57:45;;;;;;;3.38;1.90;;;;;;;19.94;81.37;100619.84;5041689;28;20037;-63
2021/09/29 13:00:13;;;;;;;2.00;1.70;;;;;;;19.87;80.73;100620.00;5042445;28;20043;-63
2021/09/29 13:02:40;;;;;;;2.05;1.67;;;;;;;19.79;81.10;100613.88;5043115;28;20075;-63
2021/09/29 13:05:06;;;;;;;3.22;1.92;;;;;;;19.71;80.64;100617.94;5040567;28;20039;-63
2021/09/29 13:07:31;;;;;;;4.63;2.00;;;;;;;19.54;80.81;100615.50;5048678;28;20048;-63
2021/09/29 13:09:57;;;;;;;3.42;1.58;;;;;;;19.42;81.25;100607.88;5044582;28;20112;-63
2021/09/29 13:12:22;;;;;;;2.30;1.70;;;;;;;19.32;81.78;100615.06;5050427;28;20063;-63
2021/09/29 13:14:47;;;;;;;3.10;2.00;;;;;;;19.30;82.60;100611.19;5044001;28;20073;-63
2021/09/29 13:17:13;;;;;;;2.03;1.58;;;;;;;19.22;83.49;100610.50;5044744;28;20044;-63
2021/09/29 13:19:51;;;;;;;4.10;2.05;;;;;;;19.19;84.43;100608.63;5040853;28;21270;-63
2021/09/29 13:22:20;;;;;;;5.05;1.83;;;;;;;19.21;85.08;100608.97;5045860;28;20029;-63
2021/09/29 13:25:15;;;;;;;2.95;1.98;;;;;;;19.25;84.52;100595.28;5047681;28;20036;-63
2021/09/29 13:38:24;;;;;;;4.15;2.05;;;;;;;19.21;83.21;100584.41;5043462;28;20382;-63
2021/09/29 13:40:49;;;;;;;1.80;1.48;;;;;;;19.10;81.99;100589.28;5039720;28;20077;-63
2021/09/29 13:43:15;;;;;;;1.90;1.70;;;;;;;18.96;82.64;100581.28;5051526;28;20029;-63
2021/09/29 13:45:41;;;;;;;1.98;1.48;;;;;;;18.94;83.30;100586.38;5042545;28;20078;-63
2021/09/29 13:48:06;;;;;;;3.05;1.60;;;;;;;19.02;84.34;100592.50;5048694;28;20056;-63
2021/09/29 13:50:32;;;;;;;1.67;1.35;;;;;;;18.95;86.51;100595.34;5041390;28;20494;-63
2021/09/29 13:52:59;;;;;;;3.60;2.03;;;;;;;18.96;88.66;100600.41;5045142;28;20082;-63
2021/09/29 13:55:27;;;;;;;2.60;1.58;;;;;;;18.87;91.29;100609.09;5039854;28;20470;-63